sensor_id;sensor_type;location;lat;lon;timestamp;P1;durP1;ratioP1;P2;durP2;ratioP2
25237;SDS011;13185;50.872;5.306;2024-03-06T00:00:45;4.15;;;2.40;;
25237;SDS011;13185;50.872;5.306;2024-03-06T00:03:10;6.63;;;2.80;;
25237;SDS011;13185;50.872;5.306;2024-03-06T00:05:36;2.65;;;2.10;;
25237;SDS011;13185;50.872;5.306;2024-03-06T00:08:01;2.90;;;2.60;;
25237;SDS011;13185;50.872;5.306;2024-03-06T00:10:28;2.90;;;2.38;;
25237;SDS011;13185;50.872;5.306;2024-03-06T00:12:54;4.95;;;2.60;;
25237;SDS011;13185;50.872;5.306;2024-03-06T00:15:20;3.83;;;2.55;;
25237;SDS011;13185;50.872;5.306;2024-03-06T00:17:45;4.82;;;2.80;;
25237;SDS011;13185;50.872;5.306;2024-03-06T00:20:11;4.45;;;2.45;;
25237;SDS011;13185;50.872;5.306;2024-03-06T00:22:37;5.03;;;2.72;;
25237;SDS011;13185;50.872;5.306;2024-03-06T00:25:03;3.88;;;2.80;;
25237;SDS011;13185;50.872;5.306;2024-03-06T00:27:28;2.28;;;2.08;;
25237;SDS011;13185;50.872;5.306;2024-03-06T00:29:54;3.60;;;2.20;;
25237;SDS011;13185;50.872;5.306;2024-03-06T00:32:19;3.60;;;2.40;;
25237;SDS011;13185;50.872;5.306;2024-03-06T00:34:45;5.10;;;2.60;;
25237;SDS011;13185;50.872;5.306;2024-03-06T00:37:10;2.50;;;2.30;;
25237;SDS011;13185;50.872;5.306;2024-03-06T00:39:36;2.90;;;2.40;;
25237;SDS011;13185;50.872;5.306;2024-03-06T00:42:01;3.33;;;2.63;;
25237;SDS011;13185;50.872;5.306;2024-03-06T00:44:27;3.92;;;2.33;;
25237;SDS011;13185;50.872;5.306;2024-03-06T00:46:52;3.08;;;2.50;;
25237;SDS011;13185;50.872;5.306;2024-03-06T00:49:18;3.33;;;2.13;;
25237;SDS011;13185;50.872;5.306;2024-03-06T00:51:43;5.15;;;2.63;;
25237;SDS011;13185;50.872;5.306;2024-03-06T00:54:09;4.50;;;2.70;;
25237;SDS011;13185;50.872;5.306;2024-03-06T00:56:38;3.42;;;2.30;;
25237;SDS011;13185;50.872;5.306;2024-03-06T00:59:04;4.90;;;3.00;;
25237;SDS011;13185;50.872;5.306;2024-03-06T01:01:29;3.88;;;2.30;;
25237;SDS011;13185;50.872;5.306;2024-03-06T01:03:55;3.25;;;2.53;;
25237;SDS011;13185;50.872;5.306;2024-03-06T01:06:20;4.38;;;2.67;;
25237;SDS011;13185;50.872;5.306;2024-03-06T01:08:46;5.10;;;3.03;;
25237;SDS011;13185;50.872;5.306;2024-03-06T01:11:11;4.63;;;3.05;;
25237;SDS011;13185;50.872;5.306;2024-03-06T01:13:39;4.80;;;3.22;;
25237;SDS011;13185;50.872;5.306;2024-03-06T01:16:05;3.53;;;2.88;;
25237;SDS011;13185;50.872;5.306;2024-03-06T01:18:31;3.05;;;2.70;;
25237;SDS011;13185;50.872;5.306;2024-03-06T01:20:57;3.05;;;2.72;;
25237;SDS011;13185;50.872;5.306;2024-03-06T01:23:23;3.80;;;3.15;;
25237;SDS011;13185;50.872;5.306;2024-03-06T01:25:48;3.88;;;2.88;;
25237;SDS011;13185;50.872;5.306;2024-03-06T01:28:14;3.88;;;3.05;;
25237;SDS011;13185;50.872;5.306;2024-03-06T01:30:39;4.63;;;2.72;;
25237;SDS011;13185;50.872;5.306;2024-03-06T01:33:05;3.75;;;2.80;;
25237;SDS011;13185;50.872;5.306;2024-03-06T01:35:31;3.63;;;2.45;;
25237;SDS011;13185;50.872;5.306;2024-03-06T01:37:56;3.33;;;2.42;;
25237;SDS011;13185;50.872;5.306;2024-03-06T01:40:23;5.07;;;2.90;;
25237;SDS011;13185;50.872;5.306;2024-03-06T01:42:49;3.13;;;2.50;;
25237;SDS011;13185;50.872;5.306;2024-03-06T01:45:14;4.78;;;2.70;;
25237;SDS011;13185;50.872;5.306;2024-03-06T01:47:40;4.43;;;2.60;;
25237;SDS011;13185;50.872;5.306;2024-03-06T01:50:06;5.55;;;2.90;;
25237;SDS011;13185;50.872;5.306;2024-03-06T01:52:34;6.53;;;2.92;;
25237;SDS011;13185;50.872;5.306;2024-03-06T01:55:01;5.10;;;2.78;;
25237;SDS011;13185;50.872;5.306;2024-03-06T01:57:26;3.67;;;2.65;;
25237;SDS011;13185;50.872;5.306;2024-03-06T01:59:53;3.40;;;2.80;;
25237;SDS011;13185;50.872;5.306;2024-03-06T02:02:19;4.10;;;2.72;;
25237;SDS011;13185;50.872;5.306;2024-03-06T02:04:45;3.47;;;2.28;;
25237;SDS011;13185;50.872;5.306;2024-03-06T02:07:11;4.70;;;2.58;;
25237;SDS011;13185;50.872;5.306;2024-03-06T02:09:39;5.60;;;2.55;;
25237;SDS011;13185;50.872;5.306;2024-03-06T02:12:05;5.05;;;2.33;;
25237;SDS011;13185;50.872;5.306;2024-03-06T02:14:37;3.80;;;2.35;;
25237;SDS011;13185;50.872;5.306;2024-03-06T02:17:03;4.57;;;2.58;;
25237;SDS011;13185;50.872;5.306;2024-03-06T02:19:38;4.40;;;2.47;;
25237;SDS011;13185;50.872;5.306;2024-03-06T02:22:05;3.50;;;2.50;;
25237;SDS011;13185;50.872;5.306;2024-03-06T02:24:31;4.53;;;2.20;;
25237;SDS011;13185;50.872;5.306;2024-03-06T02:26:57;4.88;;;2.47;;
25237;SDS011;13185;50.872;5.306;2024-03-06T02:29:25;4.57;;;2.72;;
25237;SDS011;13185;50.872;5.306;2024-03-06T02:31:51;3.13;;;2.22;;
25237;SDS011;13185;50.872;5.306;2024-03-06T02:34:17;3.60;;;2.65;;
25237;SDS011;13185;50.872;5.306;2024-03-06T02:36:42;3.17;;;2.63;;
25237;SDS011;13185;50.872;5.306;2024-03-06T02:39:08;3.03;;;2.10;;
25237;SDS011;13185;50.872;5.306;2024-03-06T02:41:37;5.57;;;2.43;;
25237;SDS011;13185;50.872;5.306;2024-03-06T02:44:02;3.07;;;2.03;;
25237;SDS011;13185;50.872;5.306;2024-03-06T02:46:28;4.28;;;2.70;;
25237;SDS011;13185;50.872;5.306;2024-03-06T02:48:54;3.20;;;2.03;;
25237;SDS011;13185;50.872;5.306;2024-03-06T02:51:20;4.68;;;2.33;;
25237;SDS011;13185;50.872;5.306;2024-03-06T02:53:46;2.73;;;2.27;;
25237;SDS011;13185;50.872;5.306;2024-03-06T02:56:17;3.40;;;2.30;;
25237;SDS011;13185;50.872;5.306;2024-03-06T02:58:43;3.83;;;2.23;;
25237;SDS011;13185;50.872;5.306;2024-03-06T03:01:09;3.75;;;2.40;;
25237;SDS011;13185;50.872;5.306;2024-03-06T03:03:35;3.87;;;2.47;;
25237;SDS011;13185;50.872;5.306;2024-03-06T03:06:01;3.47;;;2.57;;
25237;SDS011;13185;50.872;5.306;2024-03-06T03:08:27;3.50;;;2.72;;
25237;SDS011;13185;50.872;5.306;2024-03-06T03:10:52;3.28;;;2.47;;
25237;SDS011;13185;50.872;5.306;2024-03-06T03:13:18;4.73;;;2.40;;
25237;SDS011;13185;50.872;5.306;2024-03-06T03:15:43;3.77;;;2.10;;
25237;SDS011;13185;50.872;5.306;2024-03-06T03:18:09;3.63;;;2.43;;
25237;SDS011;13185;50.872;5.306;2024-03-06T03:20:34;5.17;;;2.33;;
25237;SDS011;13185;50.872;5.306;2024-03-06T03:23:01;3.17;;;2.47;;
25237;SDS011;13185;50.872;5.306;2024-03-06T03:25:27;3.43;;;2.20;;
25237;SDS011;13185;50.872;5.306;2024-03-06T03:27:52;2.43;;;1.97;;
25237;SDS011;13185;50.872;5.306;2024-03-06T03:30:18;3.07;;;2.43;;
25237;SDS011;13185;50.872;5.306;2024-03-06T03:32:47;2.80;;;2.37;;
25237;SDS011;13185;50.872;5.306;2024-03-06T03:35:13;3.80;;;2.33;;
25237;SDS011;13185;50.872;5.306;2024-03-06T03:37:38;3.73;;;2.27;;
25237;SDS011;13185;50.872;5.306;2024-03-06T03:40:04;2.50;;;2.10;;
25237;SDS011;13185;50.872;5.306;2024-03-06T03:42:31;3.15;;;2.13;;
25237;SDS011;13185;50.872;5.306;2024-03-06T03:44:57;4.60;;;2.37;;
25237;SDS011;13185;50.872;5.306;2024-03-06T03:47:22;4.27;;;2.03;;
25237;SDS011;13185;50.872;5.306;2024-03-06T03:49:48;4.70;;;2.20;;
25237;SDS011;13185;50.872;5.306;2024-03-06T03:52:13;4.57;;;2.47;;
25237;SDS011;13185;50.872;5.306;2024-03-06T03:54:39;3.70;;;2.30;;
25237;SDS011;13185;50.872;5.306;2024-03-06T03:57:05;3.23;;;2.00;;
25237;SDS011;13185;50.872;5.306;2024-03-06T03:59:32;3.57;;;2.50;;
25237;SDS011;13185;50.872;5.306;2024-03-06T04:01:57;3.00;;;2.10;;
25237;SDS011;13185;50.872;5.306;2024-03-06T04:04:23;5.37;;;2.37;;
25237;SDS011;13185;50.872;5.306;2024-03-06T04:06:49;3.27;;;2.17;;
25237;SDS011;13185;50.872;5.306;2024-03-06T04:09:14;3.37;;;2.13;;
25237;SDS011;13185;50.872;5.306;2024-03-06T04:11:40;3.73;;;2.23;;
25237;SDS011;13185;50.872;5.306;2024-03-06T04:14:06;2.37;;;2.13;;
25237;SDS011;13185;50.872;5.306;2024-03-06T04:16:32;4.27;;;2.33;;
25237;SDS011;13185;50.872;5.306;2024-03-06T04:18:58;12.13;;;3.33;;
25237;SDS011;13185;50.872;5.306;2024-03-06T04:21:24;4.27;;;2.60;;
25237;SDS011;13185;50.872;5.306;2024-03-06T04:23:49;4.10;;;2.50;;
25237;SDS011;13185;50.872;5.306;2024-03-06T04:26:15;4.07;;;2.60;;
25237;SDS011;13185;50.872;5.306;2024-03-06T04:28:42;4.27;;;2.47;;
25237;SDS011;13185;50.872;5.306;2024-03-06T04:31:08;4.80;;;2.53;;
25237;SDS011;13185;50.872;5.306;2024-03-06T04:33:34;3.50;;;2.70;;
25237;SDS011;13185;50.872;5.306;2024-03-06T04:36:02;4.60;;;2.70;;
25237;SDS011;13185;50.872;5.306;2024-03-06T04:38:30;4.53;;;2.57;;
25237;SDS011;13185;50.872;5.306;2024-03-06T04:40:56;3.90;;;2.50;;
25237;SDS011;13185;50.872;5.306;2024-03-06T04:43:22;3.90;;;2.67;;
25237;SDS011;13185;50.872;5.306;2024-03-06T04:45:47;4.03;;;2.20;;
25237;SDS011;13185;50.872;5.306;2024-03-06T04:48:13;3.43;;;2.43;;
25237;SDS011;13185;50.872;5.306;2024-03-06T04:50:38;5.63;;;2.63;;
25237;SDS011;13185;50.872;5.306;2024-03-06T04:53:04;4.77;;;2.60;;
25237;SDS011;13185;50.872;5.306;2024-03-06T04:55:29;5.27;;;2.30;;
25237;SDS011;13185;50.872;5.306;2024-03-06T04:57:56;4.90;;;2.80;;
25237;SDS011;13185;50.872;5.306;2024-03-06T05:00:22;3.37;;;2.43;;
25237;SDS011;13185;50.872;5.306;2024-03-06T05:02:48;3.97;;;2.50;;
25237;SDS011;13185;50.872;5.306;2024-03-06T05:05:16;8.03;;;2.83;;
25237;SDS011;13185;50.872;5.306;2024-03-06T05:07:42;3.13;;;2.60;;
25237;SDS011;13185;50.872;5.306;2024-03-06T05:10:07;4.33;;;2.70;;
25237;SDS011;13185;50.872;5.306;2024-03-06T05:12:33;6.07;;;2.67;;
25237;SDS011;13185;50.872;5.306;2024-03-06T05:14:59;2.93;;;2.30;;
25237;SDS011;13185;50.872;5.306;2024-03-06T05:17:25;3.83;;;2.93;;
25237;SDS011;13185;50.872;5.306;2024-03-06T05:19:50;4.07;;;2.20;;
25237;SDS011;13185;50.872;5.306;2024-03-06T05:22:16;5.53;;;2.40;;
25237;SDS011;13185;50.872;5.306;2024-03-06T05:24:42;4.10;;;3.03;;
25237;SDS011;13185;50.872;5.306;2024-03-06T05:27:08;7.40;;;2.70;;
25237;SDS011;13185;50.872;5.306;2024-03-06T05:29:35;3.73;;;2.23;;
25237;SDS011;13185;50.872;5.306;2024-03-06T05:32:01;5.10;;;2.43;;
25237;SDS011;13185;50.872;5.306;2024-03-06T05:34:28;5.80;;;2.70;;
25237;SDS011;13185;50.872;5.306;2024-03-06T05:36:55;3.13;;;2.60;;
25237;SDS011;13185;50.872;5.306;2024-03-06T05:39:20;8.70;;;3.20;;
25237;SDS011;13185;50.872;5.306;2024-03-06T05:41:46;3.90;;;2.77;;
25237;SDS011;13185;50.872;5.306;2024-03-06T05:44:11;4.80;;;2.70;;
25237;SDS011;13185;50.872;5.306;2024-03-06T05:46:37;4.37;;;2.67;;
25237;SDS011;13185;50.872;5.306;2024-03-06T05:49:02;4.50;;;2.50;;
25237;SDS011;13185;50.872;5.306;2024-03-06T05:51:29;4.43;;;3.27;;
25237;SDS011;13185;50.872;5.306;2024-03-06T05:53:55;4.83;;;2.50;;
25237;SDS011;13185;50.872;5.306;2024-03-06T05:56:21;5.93;;;2.77;;
25237;SDS011;13185;50.872;5.306;2024-03-06T05:58:46;3.37;;;2.30;;
25237;SDS011;13185;50.872;5.306;2024-03-06T06:01:15;3.00;;;2.50;;
25237;SDS011;13185;50.872;5.306;2024-03-06T06:03:45;4.07;;;2.38;;
25237;SDS011;13185;50.872;5.306;2024-03-06T06:06:11;3.73;;;2.70;;
25237;SDS011;13185;50.872;5.306;2024-03-06T06:08:37;4.30;;;2.93;;
25237;SDS011;13185;50.872;5.306;2024-03-06T06:11:02;4.37;;;2.80;;
25237;SDS011;13185;50.872;5.306;2024-03-06T06:13:28;7.97;;;4.30;;
25237;SDS011;13185;50.872;5.306;2024-03-06T06:15:54;7.23;;;3.90;;
25237;SDS011;13185;50.872;5.306;2024-03-06T06:18:20;5.00;;;3.40;;
25237;SDS011;13185;50.872;5.306;2024-03-06T06:20:45;8.47;;;3.00;;
25237;SDS011;13185;50.872;5.306;2024-03-06T06:23:11;7.20;;;3.40;;
25237;SDS011;13185;50.872;5.306;2024-03-06T06:25:37;7.33;;;3.70;;
25237;SDS011;13185;50.872;5.306;2024-03-06T06:28:02;5.83;;;3.30;;
25237;SDS011;13185;50.872;5.306;2024-03-06T06:30:29;5.60;;;3.40;;
25237;SDS011;13185;50.872;5.306;2024-03-06T06:32:54;3.73;;;2.90;;
25237;SDS011;13185;50.872;5.306;2024-03-06T06:35:20;7.47;;;3.73;;
25237;SDS011;13185;50.872;5.306;2024-03-06T06:37:45;6.83;;;3.27;;
25237;SDS011;13185;50.872;5.306;2024-03-06T06:40:11;4.77;;;3.20;;
25237;SDS011;13185;50.872;5.306;2024-03-06T06:42:43;5.93;;;3.43;;
25237;SDS011;13185;50.872;5.306;2024-03-06T06:45:09;6.03;;;3.23;;
25237;SDS011;13185;50.872;5.306;2024-03-06T06:47:35;7.83;;;3.73;;
25237;SDS011;13185;50.872;5.306;2024-03-06T06:50:00;5.37;;;3.60;;
25237;SDS011;13185;50.872;5.306;2024-03-06T06:52:30;3.20;;;2.90;;
25237;SDS011;13185;50.872;5.306;2024-03-06T06:54:58;5.77;;;3.70;;
25237;SDS011;13185;50.872;5.306;2024-03-06T06:57:24;3.63;;;3.10;;
25237;SDS011;13185;50.872;5.306;2024-03-06T06:59:51;3.90;;;3.10;;
25237;SDS011;13185;50.872;5.306;2024-03-06T07:02:17;7.17;;;3.73;;
25237;SDS011;13185;50.872;5.306;2024-03-06T07:04:42;4.50;;;3.00;;
25237;SDS011;13185;50.872;5.306;2024-03-06T07:07:08;6.83;;;3.00;;
25237;SDS011;13185;50.872;5.306;2024-03-06T07:09:33;4.47;;;3.33;;
25237;SDS011;13185;50.872;5.306;2024-03-06T07:11:59;5.17;;;3.03;;
25237;SDS011;13185;50.872;5.306;2024-03-06T07:14:25;6.33;;;3.47;;
25237;SDS011;13185;50.872;5.306;2024-03-06T07:16:50;3.97;;;3.17;;
25237;SDS011;13185;50.872;5.306;2024-03-06T07:19:16;6.03;;;2.90;;
25237;SDS011;13185;50.872;5.306;2024-03-06T07:21:42;6.17;;;3.83;;
25237;SDS011;13185;50.872;5.306;2024-03-06T07:24:07;7.13;;;4.07;;
25237;SDS011;13185;50.872;5.306;2024-03-06T07:26:33;8.17;;;4.47;;
25237;SDS011;13185;50.872;5.306;2024-03-06T07:28:59;8.70;;;3.87;;
25237;SDS011;13185;50.872;5.306;2024-03-06T07:31:25;5.10;;;3.77;;
25237;SDS011;13185;50.872;5.306;2024-03-06T07:33:51;5.93;;;3.40;;
25237;SDS011;13185;50.872;5.306;2024-03-06T07:36:16;6.57;;;4.07;;
25237;SDS011;13185;50.872;5.306;2024-03-06T07:38:44;4.13;;;3.57;;
25237;SDS011;13185;50.872;5.306;2024-03-06T07:41:10;25.83;;;7.23;;
25237;SDS011;13185;50.872;5.306;2024-03-06T07:43:36;33.03;;;23.53;;
25237;SDS011;13185;50.872;5.306;2024-03-06T07:46:03;14.43;;;8.67;;
25237;SDS011;13185;50.872;5.306;2024-03-06T07:48:28;7.70;;;5.70;;
25237;SDS011;13185;50.872;5.306;2024-03-06T07:50:54;11.90;;;5.30;;
25237;SDS011;13185;50.872;5.306;2024-03-06T07:53:19;8.80;;;4.63;;
25237;SDS011;13185;50.872;5.306;2024-03-06T07:55:45;7.60;;;5.10;;
25237;SDS011;13185;50.872;5.306;2024-03-06T07:58:10;7.67;;;5.20;;
25237;SDS011;13185;50.872;5.306;2024-03-06T08:00:36;5.77;;;4.20;;
25237;SDS011;13185;50.872;5.306;2024-03-06T08:03:01;7.40;;;4.40;;
25237;SDS011;13185;50.872;5.306;2024-03-06T08:05:28;15.83;;;5.00;;
25237;SDS011;13185;50.872;5.306;2024-03-06T08:07:53;7.43;;;4.73;;
25237;SDS011;13185;50.872;5.306;2024-03-06T08:10:19;10.03;;;4.17;;
25237;SDS011;13185;50.872;5.306;2024-03-06T08:12:45;7.37;;;4.10;;
25237;SDS011;13185;50.872;5.306;2024-03-06T08:15:13;7.70;;;4.57;;
25237;SDS011;13185;50.872;5.306;2024-03-06T08:17:40;7.37;;;4.27;;
25237;SDS011;13185;50.872;5.306;2024-03-06T08:20:08;8.43;;;4.90;;
25237;SDS011;13185;50.872;5.306;2024-03-06T08:22:36;8.83;;;5.00;;
25237;SDS011;13185;50.872;5.306;2024-03-06T08:25:07;9.17;;;5.10;;
25237;SDS011;13185;50.872;5.306;2024-03-06T08:27:38;6.63;;;4.20;;
25237;SDS011;13185;50.872;5.306;2024-03-06T08:30:05;5.27;;;4.17;;
25237;SDS011;13185;50.872;5.306;2024-03-06T08:32:32;7.67;;;4.37;;
25237;SDS011;13185;50.872;5.306;2024-03-06T08:35:03;6.37;;;3.53;;
25237;SDS011;13185;50.872;5.306;2024-03-06T08:37:33;4.35;;;3.17;;
25237;SDS011;13185;50.872;5.306;2024-03-06T08:40:01;18.07;;;4.03;;
25237;SDS011;13185;50.872;5.306;2024-03-06T08:42:27;5.03;;;3.00;;
25237;SDS011;13185;50.872;5.306;2024-03-06T08:44:53;6.17;;;2.73;;
25237;SDS011;13185;50.872;5.306;2024-03-06T08:47:19;5.83;;;3.07;;
25237;SDS011;13185;50.872;5.306;2024-03-06T08:49:44;7.32;;;3.17;;
25237;SDS011;13185;50.872;5.306;2024-03-06T08:52:10;5.13;;;2.90;;
25237;SDS011;13185;50.872;5.306;2024-03-06T08:54:36;5.25;;;2.65;;
25237;SDS011;13185;50.872;5.306;2024-03-06T08:57:02;6.63;;;2.72;;
25237;SDS011;13185;50.872;5.306;2024-03-06T08:59:29;8.10;;;3.07;;
25237;SDS011;13185;50.872;5.306;2024-03-06T09:01:55;5.28;;;3.75;;
25237;SDS011;13185;50.872;5.306;2024-03-06T09:04:25;4.03;;;2.70;;
25237;SDS011;13185;50.872;5.306;2024-03-06T09:06:50;4.72;;;2.78;;
25237;SDS011;13185;50.872;5.306;2024-03-06T09:09:16;4.18;;;3.05;;
25237;SDS011;13185;50.872;5.306;2024-03-06T09:11:42;6.32;;;3.08;;
25237;SDS011;13185;50.872;5.306;2024-03-06T09:14:07;4.07;;;2.47;;
25237;SDS011;13185;50.872;5.306;2024-03-06T09:16:34;6.63;;;3.47;;
25237;SDS011;13185;50.872;5.306;2024-03-06T09:19:00;7.18;;;2.72;;
25237;SDS011;13185;50.872;5.306;2024-03-06T09:21:25;8.48;;;3.20;;
25237;SDS011;13185;50.872;5.306;2024-03-06T09:23:51;6.03;;;3.03;;
25237;SDS011;13185;50.872;5.306;2024-03-06T09:26:17;6.28;;;2.60;;
25237;SDS011;13185;50.872;5.306;2024-03-06T09:28:42;6.38;;;3.13;;
25237;SDS011;13185;50.872;5.306;2024-03-06T09:31:08;7.35;;;2.70;;
25237;SDS011;13185;50.872;5.306;2024-03-06T09:33:34;6.35;;;3.08;;
25237;SDS011;13185;50.872;5.306;2024-03-06T09:35:59;4.43;;;2.88;;
25237;SDS011;13185;50.872;5.306;2024-03-06T09:38:25;5.95;;;2.88;;
25237;SDS011;13185;50.872;5.306;2024-03-06T09:40:50;6.55;;;3.40;;
25237;SDS011;13185;50.872;5.306;2024-03-06T09:43:17;4.22;;;2.63;;
25237;SDS011;13185;50.872;5.306;2024-03-06T09:45:45;4.68;;;2.63;;
25237;SDS011;13185;50.872;5.306;2024-03-06T09:48:13;5.95;;;2.92;;
25237;SDS011;13185;50.872;5.306;2024-03-06T09:50:41;5.35;;;2.83;;
25237;SDS011;13185;50.872;5.306;2024-03-06T09:53:10;5.10;;;2.50;;
25237;SDS011;13185;50.872;5.306;2024-03-06T09:55:40;7.88;;;3.95;;
25237;SDS011;13185;50.872;5.306;2024-03-06T09:58:07;5.63;;;3.63;;
25237;SDS011;13185;50.872;5.306;2024-03-06T10:00:36;7.63;;;3.40;;
25237;SDS011;13185;50.872;5.306;2024-03-06T10:03:03;7.07;;;2.90;;
25237;SDS011;13185;50.872;5.306;2024-03-06T10:05:31;5.70;;;2.97;;
25237;SDS011;13185;50.872;5.306;2024-03-06T10:07:59;4.90;;;2.30;;
25237;SDS011;13185;50.872;5.306;2024-03-06T10:10:25;7.05;;;2.60;;
25237;SDS011;13185;50.872;5.306;2024-03-06T10:12:52;27.70;;;4.40;;
25237;SDS011;13185;50.872;5.306;2024-03-06T10:15:18;16.85;;;4.05;;
25237;SDS011;13185;50.872;5.306;2024-03-06T10:17:43;16.65;;;3.78;;
25237;SDS011;13185;50.872;5.306;2024-03-06T10:20:20;9.45;;;3.25;;
25237;SDS011;13185;50.872;5.306;2024-03-06T10:22:51;7.15;;;2.67;;
25237;SDS011;13185;50.872;5.306;2024-03-06T10:25:21;7.18;;;2.70;;
25237;SDS011;13185;50.872;5.306;2024-03-06T10:28:03;6.03;;;2.55;;
25237;SDS011;13185;50.872;5.306;2024-03-06T10:30:35;3.47;;;2.40;;
25237;SDS011;13185;50.872;5.306;2024-03-06T10:33:01;5.82;;;2.33;;
25237;SDS011;13185;50.872;5.306;2024-03-06T10:35:28;5.18;;;2.42;;
25237;SDS011;13185;50.872;5.306;2024-03-06T10:37:54;3.92;;;2.63;;
25237;SDS011;13185;50.872;5.306;2024-03-06T10:40:21;4.95;;;2.50;;
25237;SDS011;13185;50.872;5.306;2024-03-06T10:42:48;4.88;;;2.20;;
25237;SDS011;13185;50.872;5.306;2024-03-06T10:45:14;7.30;;;2.97;;
25237;SDS011;13185;50.872;5.306;2024-03-06T10:47:45;4.68;;;2.53;;
25237;SDS011;13185;50.872;5.306;2024-03-06T10:50:14;5.45;;;3.08;;
25237;SDS011;13185;50.872;5.306;2024-03-06T10:52:40;4.05;;;2.30;;
25237;SDS011;13185;50.872;5.306;2024-03-06T10:55:07;5.00;;;2.53;;
25237;SDS011;13185;50.872;5.306;2024-03-06T10:57:36;3.80;;;2.33;;
25237;SDS011;13185;50.872;5.306;2024-03-06T11:00:02;5.75;;;2.42;;
25237;SDS011;13185;50.872;5.306;2024-03-06T11:02:28;9.75;;;2.80;;
25237;SDS011;13185;50.872;5.306;2024-03-06T11:04:55;5.68;;;2.67;;
25237;SDS011;13185;50.872;5.306;2024-03-06T11:07:20;4.57;;;2.83;;
25237;SDS011;13185;50.872;5.306;2024-03-06T11:09:46;4.38;;;2.20;;
25237;SDS011;13185;50.872;5.306;2024-03-06T11:12:31;4.65;;;1.90;;
25237;SDS011;13185;50.872;5.306;2024-03-06T11:14:58;4.20;;;2.30;;
25237;SDS011;13185;50.872;5.306;2024-03-06T11:17:26;9.80;;;2.65;;
25237;SDS011;13185;50.872;5.306;2024-03-06T11:28:22;5.25;;;2.28;;
25237;SDS011;13185;50.872;5.306;2024-03-06T11:30:54;5.05;;;2.42;;
25237;SDS011;13185;50.872;5.306;2024-03-06T11:36:18;11.43;;;2.50;;
25237;SDS011;13185;50.872;5.306;2024-03-06T11:41:22;10.50;;;2.13;;
25237;SDS011;13185;50.872;5.306;2024-03-06T11:43:48;5.85;;;2.00;;
25237;SDS011;13185;50.872;5.306;2024-03-06T11:46:22;4.13;;;1.98;;
25237;SDS011;13185;50.872;5.306;2024-03-06T11:48:54;4.07;;;2.22;;
25237;SDS011;13185;50.872;5.306;2024-03-06T11:51:21;8.03;;;2.70;;
25237;SDS011;13185;50.872;5.306;2024-03-06T11:53:51;4.93;;;1.90;;
25237;SDS011;13185;50.872;5.306;2024-03-06T11:56:20;4.75;;;2.03;;
25237;SDS011;13185;50.872;5.306;2024-03-06T11:58:46;4.47;;;2.38;;
25237;SDS011;13185;50.872;5.306;2024-03-06T12:01:13;5.25;;;2.20;;
25237;SDS011;13185;50.872;5.306;2024-03-06T12:03:39;5.22;;;2.13;;
25237;SDS011;13185;50.872;5.306;2024-03-06T12:06:06;6.15;;;1.98;;
25237;SDS011;13185;50.872;5.306;2024-03-06T12:08:33;3.28;;;1.50;;
25237;SDS011;13185;50.872;5.306;2024-03-06T12:10:58;5.82;;;1.40;;
25237;SDS011;13185;50.872;5.306;2024-03-06T12:13:24;3.50;;;1.45;;
25237;SDS011;13185;50.872;5.306;2024-03-06T12:15:50;4.90;;;1.80;;
25237;SDS011;13185;50.872;5.306;2024-03-06T12:18:19;2.78;;;1.40;;
25237;SDS011;13185;50.872;5.306;2024-03-06T12:20:44;2.60;;;1.23;;
25237;SDS011;13185;50.872;5.306;2024-03-06T12:23:23;3.55;;;1.27;;
25237;SDS011;13185;50.872;5.306;2024-03-06T12:26:01;5.97;;;1.30;;
25237;SDS011;13185;50.872;5.306;2024-03-06T12:28:27;2.33;;;1.20;;
25237;SDS011;13185;50.872;5.306;2024-03-06T12:30:53;3.08;;;1.20;;
25237;SDS011;13185;50.872;5.306;2024-03-06T12:33:18;3.35;;;1.38;;
25237;SDS011;13185;50.872;5.306;2024-03-06T12:35:45;7.55;;;1.20;;
25237;SDS011;13185;50.872;5.306;2024-03-06T12:38:12;7.38;;;1.02;;
25237;SDS011;13185;50.872;5.306;2024-03-06T12:40:42;1.25;;;0.90;;
25237;SDS011;13185;50.872;5.306;2024-03-06T12:43:08;4.50;;;1.52;;
25237;SDS011;13185;50.872;5.306;2024-03-06T12:45:34;5.15;;;1.10;;
25237;SDS011;13185;50.872;5.306;2024-03-06T12:48:01;2.05;;;0.70;;
25237;SDS011;13185;50.872;5.306;2024-03-06T12:50:28;3.10;;;0.90;;
25237;SDS011;13185;50.872;5.306;2024-03-06T12:52:54;2.50;;;1.15;;
25237;SDS011;13185;50.872;5.306;2024-03-06T12:55:19;5.07;;;1.13;;
25237;SDS011;13185;50.872;5.306;2024-03-06T12:57:45;3.45;;;1.50;;
25237;SDS011;13185;50.872;5.306;2024-03-06T13:00:11;2.67;;;1.58;;
25237;SDS011;13185;50.872;5.306;2024-03-06T13:02:44;2.67;;;0.98;;
25237;SDS011;13185;50.872;5.306;2024-03-06T13:05:10;2.60;;;1.20;;
25237;SDS011;13185;50.872;5.306;2024-03-06T13:07:36;4.38;;;1.40;;
25237;SDS011;13185;50.872;5.306;2024-03-06T13:10:04;3.17;;;1.60;;
25237;SDS011;13185;50.872;5.306;2024-03-06T13:12:30;6.35;;;1.35;;
25237;SDS011;13185;50.872;5.306;2024-03-06T13:14:57;3.00;;;1.38;;
25237;SDS011;13185;50.872;5.306;2024-03-06T13:17:22;4.05;;;1.38;;
25237;SDS011;13185;50.872;5.306;2024-03-06T13:19:47;4.38;;;1.85;;
25237;SDS011;13185;50.872;5.306;2024-03-06T13:22:14;4.13;;;1.63;;
25237;SDS011;13185;50.872;5.306;2024-03-06T13:24:40;2.67;;;1.45;;
25237;SDS011;13185;50.872;5.306;2024-03-06T13:27:05;3.20;;;1.10;;
25237;SDS011;13185;50.872;5.306;2024-03-06T13:29:31;4.95;;;1.40;;
25237;SDS011;13185;50.872;5.306;2024-03-06T13:31:56;2.35;;;1.48;;
25237;SDS011;13185;50.872;5.306;2024-03-06T13:34:22;2.70;;;1.33;;
25237;SDS011;13185;50.872;5.306;2024-03-06T13:36:47;3.45;;;1.08;;
25237;SDS011;13185;50.872;5.306;2024-03-06T13:39:12;4.25;;;1.50;;
25237;SDS011;13185;50.872;5.306;2024-03-06T13:41:38;11.35;;;2.00;;
25237;SDS011;13185;50.872;5.306;2024-03-06T13:44:03;6.05;;;1.42;;
25237;SDS011;13185;50.872;5.306;2024-03-06T13:46:29;4.82;;;1.25;;
25237;SDS011;13185;50.872;5.306;2024-03-06T13:48:54;4.88;;;1.02;;
25237;SDS011;13185;50.872;5.306;2024-03-06T13:51:20;2.88;;;0.98;;
25237;SDS011;13185;50.872;5.306;2024-03-06T13:53:45;4.75;;;1.20;;
25237;SDS011;13185;50.872;5.306;2024-03-06T13:56:11;4.95;;;1.40;;
25237;SDS011;13185;50.872;5.306;2024-03-06T13:58:37;1.70;;;0.93;;
25237;SDS011;13185;50.872;5.306;2024-03-06T14:01:03;3.15;;;1.23;;
25237;SDS011;13185;50.872;5.306;2024-03-06T14:03:30;5.65;;;1.00;;
25237;SDS011;13185;50.872;5.306;2024-03-06T14:05:58;2.88;;;1.33;;
25237;SDS011;13185;50.872;5.306;2024-03-06T14:08:24;4.82;;;1.15;;
25237;SDS011;13185;50.872;5.306;2024-03-06T14:10:50;3.50;;;0.90;;
25237;SDS011;13185;50.872;5.306;2024-03-06T14:13:16;2.58;;;0.93;;
25237;SDS011;13185;50.872;5.306;2024-03-06T14:15:41;2.92;;;1.20;;
25237;SDS011;13185;50.872;5.306;2024-03-06T14:18:07;2.92;;;1.08;;
25237;SDS011;13185;50.872;5.306;2024-03-06T14:20:32;4.25;;;1.15;;
25237;SDS011;13185;50.872;5.306;2024-03-06T14:22:58;1.92;;;1.00;;
25237;SDS011;13185;50.872;5.306;2024-03-06T14:25:23;2.67;;;1.13;;
25237;SDS011;13185;50.872;5.306;2024-03-06T14:27:49;1.55;;;0.80;;
25237;SDS011;13185;50.872;5.306;2024-03-06T14:30:14;2.53;;;1.30;;
25237;SDS011;13185;50.872;5.306;2024-03-06T14:32:40;1.33;;;0.90;;
25237;SDS011;13185;50.872;5.306;2024-03-06T14:35:06;2.80;;;1.40;;
25237;SDS011;13185;50.872;5.306;2024-03-06T14:37:32;3.55;;;0.98;;
25237;SDS011;13185;50.872;5.306;2024-03-06T14:39:58;4.30;;;1.30;;
25237;SDS011;13185;50.872;5.306;2024-03-06T14:42:23;3.35;;;1.40;;
25237;SDS011;13185;50.872;5.306;2024-03-06T14:44:49;53.72;;;6.03;;
25237;SDS011;13185;50.872;5.306;2024-03-06T14:47:14;9.35;;;1.50;;
25237;SDS011;13185;50.872;5.306;2024-03-06T14:49:42;3.40;;;1.23;;
25237;SDS011;13185;50.872;5.306;2024-03-06T14:52:10;5.85;;;1.10;;
25237;SDS011;13185;50.872;5.306;2024-03-06T14:54:36;4.72;;;1.15;;
25237;SDS011;13185;50.872;5.306;2024-03-06T14:57:02;2.13;;;1.20;;